sensor_id;sensor_type;location;lat;lon;timestamp;temperature;humidity
21778;DHT22;11050;52.222;20.916;2023-02-15T00:01:46;3.80;99.90
21778;DHT22;11050;52.222;20.916;2023-02-15T00:04:15;3.80;99.90
21778;DHT22;11050;52.222;20.916;2023-02-15T00:06:42;3.80;99.90
21778;DHT22;11050;52.222;20.916;2023-02-15T00:09:11;3.80;99.90
21778;DHT22;11050;52.222;20.916;2023-02-15T00:11:38;3.90;99.90
21778;DHT22;11050;52.222;20.916;2023-02-15T00:14:23;3.90;99.90
21778;DHT22;11050;52.222;20.916;2023-02-15T00:16:51;3.90;99.90
21778;DHT22;11050;52.222;20.916;2023-02-15T00:19:19;3.90;99.90
21778;DHT22;11050;52.222;20.916;2023-02-15T00:21:46;3.80;99.90
21778;DHT22;11050;52.222;20.916;2023-02-15T00:24:15;3.80;99.90
21778;DHT22;11050;52.222;20.916;2023-02-15T00:26:42;3.80;99.90
21778;DHT22;11050;52.222;20.916;2023-02-15T00:29:10;3.80;99.90
21778;DHT22;11050;52.222;20.916;2023-02-15T00:31:36;3.80;99.90
21778;DHT22;11050;52.222;20.916;2023-02-15T00:34:04;3.80;99.90
21778;DHT22;11050;52.222;20.916;2023-02-15T00:36:32;3.80;99.90
21778;DHT22;11050;52.222;20.916;2023-02-15T00:38:58;3.80;99.90
21778;DHT22;11050;52.222;20.916;2023-02-15T00:41:24;3.90;99.90
21778;DHT22;11050;52.222;20.916;2023-02-15T00:43:50;3.90;99.90
21778;DHT22;11050;52.222;20.916;2023-02-15T00:46:15;3.90;99.90
21778;DHT22;11050;52.222;20.916;2023-02-15T00:48:41;3.90;99.90
21778;DHT22;11050;52.222;20.916;2023-02-15T00:51:07;3.90;99.90
21778;DHT22;11050;52.222;20.916;2023-02-15T00:53:32;3.90;99.90
21778;DHT22;11050;52.222;20.916;2023-02-15T00:55:58;3.90;99.90
21778;DHT22;11050;52.222;20.916;2023-02-15T00:58:24;3.90;99.90
21778;DHT22;11050;52.222;20.916;2023-02-15T01:00:51;3.90;99.90
21778;DHT22;11050;52.222;20.916;2023-02-15T01:03:19;3.90;99.90
21778;DHT22;11050;52.222;20.916;2023-02-15T01:05:47;3.90;99.90
21778;DHT22;11050;52.222;20.916;2023-02-15T01:08:14;3.90;99.90
21778;DHT22;11050;52.222;20.916;2023-02-15T01:10:40;3.90;99.90
21778;DHT22;11050;52.222;20.916;2023-02-15T01:13:06;3.90;99.90
21778;DHT22;11050;52.222;20.916;2023-02-15T01:15:34;3.90;99.90
21778;DHT22;11050;52.222;20.916;2023-02-15T01:18:00;3.90;99.90
21778;DHT22;11050;52.222;20.916;2023-02-15T01:20:28;3.90;99.90
21778;DHT22;11050;52.222;20.916;2023-02-15T01:22:55;3.90;99.90
21778;DHT22;11050;52.222;20.916;2023-02-15T01:25:23;3.90;99.90
21778;DHT22;11050;52.222;20.916;2023-02-15T01:27:49;3.90;99.90
21778;DHT22;11050;52.222;20.916;2023-02-15T01:30:16;3.90;99.90
21778;DHT22;11050;52.222;20.916;2023-02-15T01:32:42;3.90;99.90
21778;DHT22;11050;52.222;20.916;2023-02-15T01:35:09;3.90;99.90
21778;DHT22;11050;52.222;20.916;2023-02-15T01:37:36;3.90;99.90
21778;DHT22;11050;52.222;20.916;2023-02-15T01:40:04;3.90;99.90
21778;DHT22;11050;52.222;20.916;2023-02-15T01:42:32;3.90;99.90
21778;DHT22;11050;52.222;20.916;2023-02-15T01:45:00;3.90;99.90
21778;DHT22;11050;52.222;20.916;2023-02-15T01:47:43;3.90;99.90
21778;DHT22;11050;52.222;20.916;2023-02-15T01:50:26;3.90;99.90
21778;DHT22;11050;52.222;20.916;2023-02-15T01:53:01;3.90;99.90
21778;DHT22;11050;52.222;20.916;2023-02-15T01:55:32;3.80;99.90
21778;DHT22;11050;52.222;20.916;2023-02-15T01:58:02;3.90;99.90
21778;DHT22;11050;52.222;20.916;2023-02-15T02:00:28;3.90;99.90
21778;DHT22;11050;52.222;20.916;2023-02-15T02:02:55;3.90;99.90
21778;DHT22;11050;52.222;20.916;2023-02-15T02:05:22;3.90;99.90
21778;DHT22;11050;52.222;20.916;2023-02-15T02:07:51;3.90;99.90
21778;DHT22;11050;52.222;20.916;2023-02-15T02:10:21;3.90;99.90
21778;DHT22;11050;52.222;20.916;2023-02-15T02:12:53;3.90;99.90
21778;DHT22;11050;52.222;20.916;2023-02-15T02:21:53;3.90;99.90
21778;DHT22;11050;52.222;20.916;2023-02-15T02:28:16;3.90;99.90
21778;DHT22;11050;52.222;20.916;2023-02-15T02:39:47;3.90;99.90
21778;DHT22;11050;52.222;20.916;2023-02-15T02:42:37;3.90;99.90
21778;DHT22;11050;52.222;20.916;2023-02-15T02:45:09;3.90;99.90
21778;DHT22;11050;52.222;20.916;2023-02-15T02:47:59;3.90;99.90
21778;DHT22;11050;52.222;20.916;2023-02-15T02:50:29;3.90;99.90
21778;DHT22;11050;52.222;20.916;2023-02-15T02:52:57;3.90;99.90
21778;DHT22;11050;52.222;20.916;2023-02-15T02:55:48;3.90;99.90
21778;DHT22;11050;52.222;20.916;2023-02-15T03:01:13;3.90;99.90
21778;DHT22;11050;52.222;20.916;2023-02-15T03:03:49;3.90;99.90
21778;DHT22;11050;52.222;20.916;2023-02-15T03:06:26;3.90;99.90
21778;DHT22;11050;52.222;20.916;2023-02-15T03:09:20;3.80;99.90
21778;DHT22;11050;52.222;20.916;2023-02-15T03:12:00;3.90;99.90
21778;DHT22;11050;52.222;20.916;2023-02-15T03:14:28;3.80;99.90
21778;DHT22;11050;52.222;20.916;2023-02-15T03:16:55;3.90;99.90
21778;DHT22;11050;52.222;20.916;2023-02-15T03:19:27;3.90;99.90
21778;DHT22;11050;52.222;20.916;2023-02-15T03:22:14;3.90;99.90
21778;DHT22;11050;52.222;20.916;2023-02-15T03:27:42;3.90;99.90
21778;DHT22;11050;52.222;20.916;2023-02-15T03:30:12;3.90;99.90
21778;DHT22;11050;52.222;20.916;2023-02-15T03:32:40;3.90;99.90
21778;DHT22;11050;52.222;20.916;2023-02-15T03:35:08;3.90;99.90
21778;DHT22;11050;52.222;20.916;2023-02-15T03:37:41;4.00;99.90
21778;DHT22;11050;52.222;20.916;2023-02-15T03:40:18;3.90;99.90
21778;DHT22;11050;52.222;20.916;2023-02-15T03:44:02;4.00;99.90
21778;DHT22;11050;52.222;20.916;2023-02-15T03:46:28;4.00;99.90
21778;DHT22;11050;52.222;20.916;2023-02-15T03:49:08;4.00;99.90
21778;DHT22;11050;52.222;20.916;2023-02-15T03:51:39;4.00;99.90
21778;DHT22;11050;52.222;20.916;2023-02-15T03:54:10;4.00;99.90
21778;DHT22;11050;52.222;20.916;2023-02-15T03:56:41;4.00;99.90
21778;DHT22;11050;52.222;20.916;2023-02-15T03:59:27;4.00;99.90
21778;DHT22;11050;52.222;20.916;2023-02-15T04:02:20;4.00;99.90
21778;DHT22;11050;52.222;20.916;2023-02-15T04:04:49;4.00;99.90
21778;DHT22;11050;52.222;20.916;2023-02-15T04:07:15;4.00;99.90
21778;DHT22;11050;52.222;20.916;2023-02-15T04:09:41;4.00;99.90
21778;DHT22;11050;52.222;20.916;2023-02-15T04:12:25;4.00;99.90
21778;DHT22;11050;52.222;20.916;2023-02-15T04:14:50;4.00;99.90
21778;DHT22;11050;52.222;20.916;2023-02-15T04:17:36;4.00;99.90
21778;DHT22;11050;52.222;20.916;2023-02-15T04:20:03;4.00;99.90
21778;DHT22;11050;52.222;20.916;2023-02-15T04:22:47;4.00;99.90
21778;DHT22;11050;52.222;20.916;2023-02-15T04:25:31;3.90;99.90
21778;DHT22;11050;52.222;20.916;2023-02-15T04:27:57;3.90;99.90
21778;DHT22;11050;52.222;20.916;2023-02-15T04:30:24;3.90;99.90
21778;DHT22;11050;52.222;20.916;2023-02-15T04:32:51;3.90;99.90
21778;DHT22;11050;52.222;20.916;2023-02-15T04:35:17;3.90;99.90
21778;DHT22;11050;52.222;20.916;2023-02-15T04:37:43;3.90;99.90
21778;DHT22;11050;52.222;20.916;2023-02-15T04:40:12;3.80;99.90
21778;DHT22;11050;52.222;20.916;2023-02-15T04:42:39;3.80;99.90
21778;DHT22;11050;52.222;20.916;2023-02-15T04:45:06;3.80;99.90
21778;DHT22;11050;52.222;20.916;2023-02-15T04:47:32;3.80;99.90
21778;DHT22;11050;52.222;20.916;2023-02-15T04:49:57;3.70;99.90
21778;DHT22;11050;52.222;20.916;2023-02-15T04:52:23;3.70;99.90
21778;DHT22;11050;52.222;20.916;2023-02-15T04:54:49;3.70;99.90
21778;DHT22;11050;52.222;20.916;2023-02-15T04:57:14;3.70;99.90
21778;DHT22;11050;52.222;20.916;2023-02-15T04:59:40;3.70;99.90
21778;DHT22;11050;52.222;20.916;2023-02-15T05:02:06;3.80;99.90
21778;DHT22;11050;52.222;20.916;2023-02-15T05:04:32;3.70;99.90
21778;DHT22;11050;52.222;20.916;2023-02-15T05:06:58;3.70;99.90
21778;DHT22;11050;52.222;20.916;2023-02-15T05:09:23;3.70;99.90
21778;DHT22;11050;52.222;20.916;2023-02-15T05:11:49;3.70;99.90
21778;DHT22;11050;52.222;20.916;2023-02-15T05:14:15;3.70;99.90
21778;DHT22;11050;52.222;20.916;2023-02-15T05:16:41;3.70;99.90
21778;DHT22;11050;52.222;20.916;2023-02-15T05:19:06;3.70;99.90
21778;DHT22;11050;52.222;20.916;2023-02-15T05:21:32;3.70;99.90
21778;DHT22;11050;52.222;20.916;2023-02-15T05:23:58;3.70;99.90
21778;DHT22;11050;52.222;20.916;2023-02-15T05:26:25;3.70;99.90
21778;DHT22;11050;52.222;20.916;2023-02-15T05:29:09;3.70;99.90
21778;DHT22;11050;52.222;20.916;2023-02-15T05:31:36;3.70;99.90
21778;DHT22;11050;52.222;20.916;2023-02-15T05:34:02;3.70;99.90
21778;DHT22;11050;52.222;20.916;2023-02-15T05:36:28;3.70;99.90
21778;DHT22;11050;52.222;20.916;2023-02-15T05:38:54;3.70;99.90
21778;DHT22;11050;52.222;20.916;2023-02-15T05:41:20;3.70;99.90
21778;DHT22;11050;52.222;20.916;2023-02-15T05:43:46;3.60;99.90
21778;DHT22;11050;52.222;20.916;2023-02-15T05:46:12;3.70;99.90
21778;DHT22;11050;52.222;20.916;2023-02-15T05:48:38;3.70;99.90
21778;DHT22;11050;52.222;20.916;2023-02-15T05:51:07;3.60;99.90
21778;DHT22;11050;52.222;20.916;2023-02-15T05:53:36;3.60;99.90
21778;DHT22;11050;52.222;20.916;2023-02-15T05:56:04;3.60;99.90
21778;DHT22;11050;52.222;20.916;2023-02-15T05:58:36;3.60;99.90
21778;DHT22;11050;52.222;20.916;2023-02-15T06:01:17;3.60;99.90
21778;DHT22;11050;52.222;20.916;2023-02-15T06:03:45;3.60;99.90
21778;DHT22;11050;52.222;20.916;2023-02-15T06:06:11;3.50;99.90
21778;DHT22;11050;52.222;20.916;2023-02-15T06:08:37;3.50;99.90
21778;DHT22;11050;52.222;20.916;2023-02-15T06:11:04;3.50;99.90
21778;DHT22;11050;52.222;20.916;2023-02-15T06:13:31;3.50;99.90
21778;DHT22;11050;52.222;20.916;2023-02-15T06:15:58;3.50;99.90
21778;DHT22;11050;52.222;20.916;2023-02-15T06:18:24;3.50;99.90
21778;DHT22;11050;52.222;20.916;2023-02-15T06:20:50;3.50;99.90
21778;DHT22;11050;52.222;20.916;2023-02-15T06:23:16;3.50;99.90
21778;DHT22;11050;52.222;20.916;2023-02-15T06:25:42;3.50;99.90
21778;DHT22;11050;52.222;20.916;2023-02-15T06:28:10;3.50;99.90
21778;DHT22;11050;52.222;20.916;2023-02-15T06:30:35;3.50;99.90
21778;DHT22;11050;52.222;20.916;2023-02-15T06:33:01;3.50;99.90
21778;DHT22;11050;52.222;20.916;2023-02-15T06:35:27;3.50;99.90
21778;DHT22;11050;52.222;20.916;2023-02-15T06:37:53;3.50;99.90
21778;DHT22;11050;52.222;20.916;2023-02-15T06:40:19;3.50;99.90
21778;DHT22;11050;52.222;20.916;2023-02-15T06:42:44;3.50;99.90
21778;DHT22;11050;52.222;20.916;2023-02-15T06:45:11;3.50;99.90
21778;DHT22;11050;52.222;20.916;2023-02-15T06:47:37;3.50;99.90
21778;DHT22;11050;52.222;20.916;2023-02-15T06:50:04;3.50;99.90
21778;DHT22;11050;52.222;20.916;2023-02-15T06:52:31;3.50;99.90
21778;DHT22;11050;52.222;20.916;2023-02-15T06:54:56;3.50;99.90
21778;DHT22;11050;52.222;20.916;2023-02-15T06:57:22;3.50;99.90
21778;DHT22;11050;52.222;20.916;2023-02-15T06:59:48;3.50;99.90
21778;DHT22;11050;52.222;20.916;2023-02-15T07:02:14;3.50;99.90
21778;DHT22;11050;52.222;20.916;2023-02-15T07:04:40;3.50;99.90
21778;DHT22;11050;52.222;20.916;2023-02-15T07:07:08;3.50;99.90
21778;DHT22;11050;52.222;20.916;2023-02-15T07:09:35;3.50;99.90
21778;DHT22;11050;52.222;20.916;2023-02-15T07:12:02;3.50;99.90
21778;DHT22;11050;52.222;20.916;2023-02-15T07:14:46;3.50;99.90
21778;DHT22;11050;52.222;20.916;2023-02-15T07:17:12;3.50;99.90
21778;DHT22;11050;52.222;20.916;2023-02-15T07:19:38;3.50;99.90
21778;DHT22;11050;52.222;20.916;2023-02-15T07:22:03;3.50;99.90
21778;DHT22;11050;52.222;20.916;2023-02-15T07:24:30;3.50;99.90
21778;DHT22;11050;52.222;20.916;2023-02-15T07:26:56;3.50;99.90
21778;DHT22;11050;52.222;20.916;2023-02-15T07:29:23;3.60;99.90
21778;DHT22;11050;52.222;20.916;2023-02-15T07:31:49;3.60;99.90
21778;DHT22;11050;52.222;20.916;2023-02-15T07:34:15;3.60;99.90
21778;DHT22;11050;52.222;20.916;2023-02-15T07:36:41;3.50;99.90
21778;DHT22;11050;52.222;20.916;2023-02-15T07:39:09;3.50;99.90
21778;DHT22;11050;52.222;20.916;2023-02-15T07:41:35;3.50;99.90
21778;DHT22;11050;52.222;20.916;2023-02-15T07:44:01;3.60;99.90
21778;DHT22;11050;52.222;20.916;2023-02-15T07:46:27;3.60;99.90
21778;DHT22;11050;52.222;20.916;2023-02-15T07:48:53;3.60;99.90
21778;DHT22;11050;52.222;20.916;2023-02-15T07:51:19;3.60;99.90
21778;DHT22;11050;52.222;20.916;2023-02-15T07:53:44;3.60;99.90
21778;DHT22;11050;52.222;20.916;2023-02-15T07:56:12;3.50;99.90
21778;DHT22;11050;52.222;20.916;2023-02-15T07:58:38;3.60;99.90
21778;DHT22;11050;52.222;20.916;2023-02-15T08:01:21;3.60;99.90
21778;DHT22;11050;52.222;20.916;2023-02-15T08:03:49;3.60;99.90
21778;DHT22;11050;52.222;20.916;2023-02-15T08:06:15;3.50;99.90
21778;DHT22;11050;52.222;20.916;2023-02-15T08:08:42;3.60;99.90
21778;DHT22;11050;52.222;20.916;2023-02-15T08:14:00;3.50;99.90
21778;DHT22;11050;52.222;20.916;2023-02-15T08:16:33;3.50;99.90
21778;DHT22;11050;52.222;20.916;2023-02-15T08:21:39;3.40;99.90
21778;DHT22;11050;52.222;20.916;2023-02-15T08:24:08;3.40;99.90
21778;DHT22;11050;52.222;20.916;2023-02-15T08:26:36;3.40;99.90
21778;DHT22;11050;52.222;20.916;2023-02-15T08:29:04;3.40;99.90
21778;DHT22;11050;52.222;20.916;2023-02-15T08:31:32;3.40;99.90
21778;DHT22;11050;52.222;20.916;2023-02-15T08:33:58;3.40;99.90
21778;DHT22;11050;52.222;20.916;2023-02-15T08:36:27;3.30;99.90
21778;DHT22;11050;52.222;20.916;2023-02-15T08:38:56;3.40;99.90
21778;DHT22;11050;52.222;20.916;2023-02-15T08:41:25;3.40;99.90
21778;DHT22;11050;52.222;20.916;2023-02-15T08:43:54;3.30;99.90
21778;DHT22;11050;52.222;20.916;2023-02-15T08:46:23;3.30;99.90
21778;DHT22;11050;52.222;20.916;2023-02-15T08:48:51;3.30;99.90
21778;DHT22;11050;52.222;20.916;2023-02-15T08:51:25;3.30;99.90
21778;DHT22;11050;52.222;20.916;2023-02-15T08:53:55;3.30;99.90
21778;DHT22;11050;52.222;20.916;2023-02-15T08:56:26;3.30;99.90
21778;DHT22;11050;52.222;20.916;2023-02-15T08:58:53;3.30;99.90
21778;DHT22;11050;52.222;20.916;2023-02-15T09:01:23;3.30;99.90
21778;DHT22;11050;52.222;20.916;2023-02-15T09:03:51;3.30;99.90
21778;DHT22;11050;52.222;20.916;2023-02-15T09:06:22;3.30;99.90
21778;DHT22;11050;52.222;20.916;2023-02-15T09:08:49;3.30;99.90
21778;DHT22;11050;52.222;20.916;2023-02-15T09:11:21;3.20;99.90
21778;DHT22;11050;52.222;20.916;2023-02-15T09:13:58;3.30;99.90
21778;DHT22;11050;52.222;20.916;2023-02-15T09:16:27;3.30;99.90
21778;DHT22;11050;52.222;20.916;2023-02-15T09:18:55;3.30;99.90
21778;DHT22;11050;52.222;20.916;2023-02-15T09:21:24;3.30;99.90
21778;DHT22;11050;52.222;20.916;2023-02-15T09:23:55;3.30;99.90
21778;DHT22;11050;52.222;20.916;2023-02-15T09:26:23;3.30;99.90
21778;DHT22;11050;52.222;20.916;2023-02-15T09:28:55;3.30;99.90
21778;DHT22;11050;52.222;20.916;2023-02-15T09:31:28;3.30;99.90
21778;DHT22;11050;52.222;20.916;2023-02-15T09:33:55;3.30;99.90
21778;DHT22;11050;52.222;20.916;2023-02-15T09:36:26;3.30;99.90
21778;DHT22;11050;52.222;20.916;2023-02-15T09:38:58;3.40;99.90
21778;DHT22;11050;52.222;20.916;2023-02-15T09:44:51;3.40;99.90
21778;DHT22;11050;52.222;20.916;2023-02-15T09:47:54;3.40;99.90
21778;DHT22;11050;52.222;20.916;2023-02-15T09:53:20;3.40;99.90
21778;DHT22;11050;52.222;20.916;2023-02-15T09:58:51;3.50;99.90
21778;DHT22;11050;52.222;20.916;2023-02-15T10:01:36;3.50;99.90
21778;DHT22;11050;52.222;20.916;2023-02-15T10:13:34;3.60;99.90
21778;DHT22;11050;52.222;20.916;2023-02-15T10:18:55;3.60;99.90
21778;DHT22;11050;52.222;20.916;2023-02-15T10:21:42;3.60;99.90
21778;DHT22;11050;52.222;20.916;2023-02-15T10:27:19;3.60;99.90
21778;DHT22;11050;52.222;20.916;2023-02-15T10:30:02;3.60;99.90
21778;DHT22;11050;52.222;20.916;2023-02-15T10:33:01;3.60;99.90
21778;DHT22;11050;52.222;20.916;2023-02-15T10:38:42;3.60;99.90
21778;DHT22;11050;52.222;20.916;2023-02-15T10:42:04;3.60;99.90
21778;DHT22;11050;52.222;20.916;2023-02-15T10:50:34;3.60;99.90
21778;DHT22;11050;52.222;20.916;2023-02-15T11:05:41;3.70;99.90
21778;DHT22;11050;52.222;20.916;2023-02-15T11:08:10;3.70;99.90
21778;DHT22;11050;52.222;20.916;2023-02-15T11:10:50;3.70;99.90
21778;DHT22;11050;52.222;20.916;2023-02-15T11:13:22;3.70;99.90
21778;DHT22;11050;52.222;20.916;2023-02-15T11:18:36;3.80;99.90
21778;DHT22;11050;52.222;20.916;2023-02-15T11:23:55;3.80;99.90
21778;DHT22;11050;52.222;20.916;2023-02-15T11:26:28;3.80;99.90
21778;DHT22;11050;52.222;20.916;2023-02-15T11:29:06;3.80;99.90
21778;DHT22;11050;52.222;20.916;2023-02-15T11:31:49;3.80;99.90
21778;DHT22;11050;52.222;20.916;2023-02-15T11:34:45;3.80;99.90
21778;DHT22;11050;52.222;20.916;2023-02-15T11:37:20;3.80;99.90
21778;DHT22;11050;52.222;20.916;2023-02-15T11:39:52;3.80;99.90
21778;DHT22;11050;52.222;20.916;2023-02-15T11:42:21;3.80;99.90
21778;DHT22;11050;52.222;20.916;2023-02-15T11:47:24;3.80;99.90
21778;DHT22;11050;52.222;20.916;2023-02-15T11:49:50;3.80;99.90
21778;DHT22;11050;52.222;20.916;2023-02-15T11:52:16;3.90;99.90
21778;DHT22;11050;52.222;20.916;2023-02-15T11:54:46;3.80;99.90
21778;DHT22;11050;52.222;20.916;2023-02-15T11:59:56;3.80;99.90
21778;DHT22;11050;52.222;20.916;2023-02-15T12:02:30;3.90;99.90
21778;DHT22;11050;52.222;20.916;2023-02-15T12:05:05;3.80;99.90
21778;DHT22;11050;52.222;20.916;2023-02-15T12:07:42;3.80;99.90
21778;DHT22;11050;52.222;20.916;2023-02-15T12:10:24;3.80;99.90
21778;DHT22;11050;52.222;20.916;2023-02-15T12:13:13;3.90;99.90
21778;DHT22;11050;52.222;20.916;2023-02-15T12:15:49;3.90;99.90
21778;DHT22;11050;52.222;20.916;2023-02-15T12:18:39;3.90;99.90
21778;DHT22;11050;52.222;20.916;2023-02-15T12:21:09;3.90;99.90
21778;DHT22;11050;52.222;20.916;2023-02-15T12:23:47;3.90;99.90
21778;DHT22;11050;52.222;20.916;2023-02-15T12:26:27;4.00;99.90
21778;DHT22;11050;52.222;20.916;2023-02-15T12:28:56;4.00;99.90
21778;DHT22;11050;52.222;20.916;2023-02-15T12:31:50;4.00;99.90
21778;DHT22;11050;52.222;20.916;2023-02-15T12:34:29;4.00;99.90
21778;DHT22;11050;52.222;20.916;2023-02-15T12:37:01;4.00;99.90
21778;DHT22;11050;52.222;20.916;2023-02-15T12:39:33;4.00;99.90
21778;DHT22;11050;52.222;20.916;2023-02-15T12:42:01;4.10;99.90
21778;DHT22;11050;52.222;20.916;2023-02-15T12:44:53;4.10;99.90
21778;DHT22;11050;52.222;20.916;2023-02-15T12:47:21;4.20;99.90
21778;DHT22;11050;52.222;20.916;2023-02-15T12:52:51;4.20;99.90
21778;DHT22;11050;52.222;20.916;2023-02-15T12:55:56;4.20;99.90
21778;DHT22;11050;52.222;20.916;2023-02-15T12:58:29;4.20;99.90
21778;DHT22;11050;52.222;20.916;2023-02-15T13:04:37;4.20;99.90
21778;DHT22;11050;52.222;20.916;2023-02-15T13:06:51;4.20;99.90
21778;DHT22;11050;52.222;20.916;2023-02-15T13:14:52;4.20;99.90
21778;DHT22;11050;52.222;20.916;2023-02-15T13:17:32;4.20;99.90
21778;DHT22;11050;52.222;20.916;2023-02-15T13:20:16;4.20;99.90
21778;DHT22;11050;52.222;20.916;2023-02-15T13:22:46;4.20;99.90
21778;DHT22;11050;52.222;20.916;2023-02-15T13:25:21;4.20;99.90
21778;DHT22;11050;52.222;20.916;2023-02-15T13:27:52;4.20;99.90
21778;DHT22;11050;52.222;20.916;2023-02-15T13:30:28;4.10;99.90
21778;DHT22;11050;52.222;20.916;2023-02-15T13:33:04;4.10;99.90
21778;DHT22;11050;52.222;20.916;2023-02-15T13:35:45;4.10;99.90
21778;DHT22;11050;52.222;20.916;2023-02-15T13:40:59;4.10;99.90
21778;DHT22;11050;52.222;20.916;2023-02-15T13:43:35;4.10;99.90
21778;DHT22;11050;52.222;20.916;2023-02-15T13:46:34;4.10;99.90
21778;DHT22;11050;52.222;20.916;2023-02-15T13:52:17;4.10;99.90
21778;DHT22;11050;52.222;20.916;2023-02-15T13:58:02;4.10;99.90
21778;DHT22;11050;52.222;20.916;2023-02-15T14:21:31;3.90;99.90
21778;DHT22;11050;52.222;20.916;2023-02-15T14:27:10;3.90;99.90
21778;DHT22;11050;52.222;20.916;2023-02-15T14:32:33;3.90;99.90
21778;DHT22;11050;52.222;20.916;2023-02-15T14:35:09;3.80;99.90
21778;DHT22;11050;52.222;20.916;2023-02-15T14:37:58;3.80;99.90
21778;DHT22;11050;52.222;20.916;2023-02-15T14:40:48;3.80;99.90
21778;DHT22;11050;52.222;20.916;2023-02-15T14:43:55;3.80;99.90
21778;DHT22;11050;52.222;20.916;2023-02-15T14:47:05;3.70;99.90
21778;DHT22;11050;52.222;20.916;2023-02-15T14:49:35;3.80;99.90
21778;DHT22;11050;52.222;20.916;2023-02-15T14:52:05;3.80;99.90
21778;DHT22;11050;52.222;20.916;2023-02-15T15:03:08;3.80;99.90
21778;DHT22;11050;52.222;20.916;2023-02-15T15:05:35;3.80;99.90
21778;DHT22;11050;52.222;20.916;2023-02-15T15:08:54;3.80;99.90
21778;DHT22;11050;52.222;20.916;2023-02-15T15:11:38;3.70;99.90
21778;DHT22;11050;52.222;20.916;2023-02-15T15:14:09;3.70;99.90
21778;DHT22;11050;52.222;20.916;2023-02-15T15:19:03;3.60;99.90
21778;DHT22;11050;52.222;20.916;2023-02-15T15:32:54;3.40;99.90
21778;DHT22;11050;52.222;20.916;2023-02-15T15:47:45;3.30;99.90
21778;DHT22;11050;52.222;20.916;2023-02-15T15:50:18;3.30;99.90
21778;DHT22;11050;52.222;20.916;2023-02-15T15:53:05;3.30;99.90
21778;DHT22;11050;52.222;20.916;2023-02-15T15:55:38;3.30;99.90
21778;DHT22;11050;52.222;20.916;2023-02-15T15:58:06;3.30;99.90
21778;DHT22;11050;52.222;20.916;2023-02-15T16:00:43;3.30;99.90
21778;DHT22;11050;52.222;20.916;2023-02-15T16:03:15;3.20;99.90
21778;DHT22;11050;52.222;20.916;2023-02-15T16:05:45;3.20;99.90
21778;DHT22;11050;52.222;20.916;2023-02-15T16:08:10;3.20;99.90
21778;DHT22;11050;52.222;20.916;2023-02-15T16:10:36;3.20;99.90
21778;DHT22;11050;52.222;20.916;2023-02-15T16:13:05;3.20;99.90
21778;DHT22;11050;52.222;20.916;2023-02-15T16:15:36;3.20;99.90
21778;DHT22;11050;52.222;20.916;2023-02-15T16:18:16;3.20;99.90
21778;DHT22;11050;52.222;20.916;2023-02-15T16:20:53;3.20;99.90
21778;DHT22;11050;52.222;20.916;2023-02-15T16:26:35;3.10;99.90
21778;DHT22;11050;52.222;20.916;2023-02-15T16:29:18;3.10;99.90
21778;DHT22;11050;52.222;20.916;2023-02-15T16:34:59;3.10;99.90
21778;DHT22;11050;52.222;20.916;2023-02-15T16:37:32;3.10;99.90
21778;DHT22;11050;52.222;20.916;2023-02-15T16:39:59;3.10;99.90
21778;DHT22;11050;52.222;20.916;2023-02-15T16:42:25;3.10;99.90
21778;DHT22;11050;52.222;20.916;2023-02-15T16:47:42;3.10;99.90
21778;DHT22;11050;52.222;20.916;2023-02-15T16:50:31;3.10;99.90
21778;DHT22;11050;52.222;20.916;2023-02-15T16:53:00;3.10;99.90
21778;DHT22;11050;52.222;20.916;2023-02-15T16:55:35;3.10;99.90
21778;DHT22;11050;52.222;20.916;2023-02-15T16:58:05;3.10;99.90
21778;DHT22;11050;52.222;20.916;2023-02-15T17:00:37;3.10;99.90
21778;DHT22;11050;52.222;20.916;2023-02-15T17:03:21;3.10;99.90
21778;DHT22;11050;52.222;20.916;2023-02-15T17:05:57;3.10;99.90
21778;DHT22;11050;52.222;20.916;2023-02-15T17:13:26;3.00;99.90
21778;DHT22;11050;52.222;20.916;2023-02-15T17:20:59;3.00;99.90
21778;DHT22;11050;52.222;20.916;2023-02-15T17:23:39;2.90;99.90
21778;DHT22;11050;52.222;20.916;2023-02-15T17:26:20;2.90;99.90
21778;DHT22;11050;52.222;20.916;2023-02-15T17:29:00;2.80;99.90
21778;DHT22;11050;52.222;20.916;2023-02-15T17:31:35;2.90;99.90
21778;DHT22;11050;52.222;20.916;2023-02-15T17:34:01;2.90;99.90
21778;DHT22;11050;52.222;20.916;2023-02-15T17:36:29;2.80;99.90
21778;DHT22;11050;52.222;20.916;2023-02-15T17:39:20;2.80;99.90
21778;DHT22;11050;52.222;20.916;2023-02-15T17:41:47;2.80;99.90
21778;DHT22;11050;52.222;20.916;2023-02-15T17:44:13;2.80;99.90
21778;DHT22;11050;52.222;20.916;2023-02-15T17:46:41;2.80;99.90
21778;DHT22;11050;52.222;20.916;2023-02-15T17:49:18;2.80;99.90
21778;DHT22;11050;52.222;20.916;2023-02-15T17:51:49;2.80;99.90
21778;DHT22;11050;52.222;20.916;2023-02-15T17:54:15;2.80;99.90
21778;DHT22;11050;52.222;20.916;2023-02-15T17:56:59;2.80;99.90
21778;DHT22;11050;52.222;20.916;2023-02-15T17:59:30;2.80;99.90
21778;DHT22;11050;52.222;20.916;2023-02-15T18:01:56;2.80;99.90
21778;DHT22;11050;52.222;20.916;2023-02-15T18:04:40;2.80;99.90
21778;DHT22;11050;52.222;20.916;2023-02-15T18:07:25;2.80;99.90
21778;DHT22;11050;52.222;20.916;2023-02-15T18:10:17;2.80;99.90
21778;DHT22;11050;52.222;20.916;2023-02-15T18:13:03;2.80;99.90
21778;DHT22;11050;52.222;20.916;2023-02-15T18:15:29;2.80;99.90
21778;DHT22;11050;52.222;20.916;2023-02-15T18:17:54;2.70;99.90
21778;DHT22;11050;52.222;20.916;2023-02-15T18:20:27;2.70;99.90
21778;DHT22;11050;52.222;20.916;2023-02-15T18:22:58;2.70;99.90
21778;DHT22;11050;52.222;20.916;2023-02-15T18:25:23;2.70;99.90
21778;DHT22;11050;52.222;20.916;2023-02-15T18:27:50;2.70;99.90
21778;DHT22;11050;52.222;20.916;2023-02-15T18:30:19;2.70;99.90
21778;DHT22;11050;52.222;20.916;2023-02-15T18:32:47;2.70;99.90
21778;DHT22;11050;52.222;20.916;2023-02-15T18:35:20;2.70;99.90
21778;DHT22;11050;52.222;20.916;2023-02-15T18:37:48;2.70;99.90
21778;DHT22;11050;52.222;20.916;2023-02-15T18:40:22;2.70;99.90
21778;DHT22;11050;52.222;20.916;2023-02-15T18:42:50;2.70;99.90
21778;DHT22;11050;52.222;20.916;2023-02-15T18:45:20;2.70;99.90
21778;DHT22;11050;52.222;20.916;2023-02-15T18:47:50;2.70;99.90
21778;DHT22;11050;52.222;20.916;2023-02-15T18:50:18;2.70;99.90
21778;DHT22;11050;52.222;20.916;2023-02-15T18:52:47;2.70;99.90
21778;DHT22;11050;52.222;20.916;2023-02-15T18:55:23;2.70;99.90
21778;DHT22;11050;52.222;20.916;2023-02-15T18:57:52;2.70;99.90
21778;DHT22;11050;52.222;20.916;2023-02-15T19:00:31;2.70;99.90
21778;DHT22;11050;52.222;20.916;2023-02-15T19:03:00;2.70;99.90
21778;DHT22;11050;52.222;20.916;2023-02-15T19:05:28;2.70;99.90
21778;DHT22;11050;52.222;20.916;2023-02-15T19:07:56;2.70;99.90
21778;DHT22;11050;52.222;20.916;2023-02-15T19:10:26;2.70;99.90